sensor_id;sensor_type;location;lat;lon;timestamp;pressure;altitude;pressure_sealevel;temperature;humidity
61870;BME280;47810;42.264;23.826;2023-05-14T00:01:48;94319.34;;;12.05;61.42
61870;BME280;47810;42.264;23.826;2023-05-14T00:04:16;94335.91;;;11.95;62.28
61870;BME280;47810;42.264;23.826;2023-05-14T00:06:42;94328.53;;;12.00;62.22
61870;BME280;47810;42.264;23.826;2023-05-14T00:09:07;94322.66;;;12.09;61.13
61870;BME280;47810;42.264;23.826;2023-05-14T00:11:33;94324.19;;;11.99;61.17
61870;BME280;47810;42.264;23.826;2023-05-14T00:13:58;94319.28;;;11.78;62.66
61870;BME280;47810;42.264;23.826;2023-05-14T00:16:24;94321.53;;;11.84;62.60
61870;BME280;47810;42.264;23.826;2023-05-14T00:18:49;94320.31;;;11.90;62.19
61870;BME280;47810;42.264;23.826;2023-05-14T00:21:15;94308.50;;;11.81;63.29
61870;BME280;47810;42.264;23.826;2023-05-14T00:23:41;94309.72;;;11.90;62.37
61870;BME280;47810;42.264;23.826;2023-05-14T00:26:06;94307.75;;;11.94;61.30
61870;BME280;47810;42.264;23.826;2023-05-14T00:28:32;94296.00;;;11.83;62.66
61870;BME280;47810;42.264;23.826;2023-05-14T00:30:58;94294.69;;;11.76;62.68
61870;BME280;47810;42.264;23.826;2023-05-14T00:33:23;94291.47;;;11.71;63.19
61870;BME280;47810;42.264;23.826;2023-05-14T00:35:49;94300.56;;;11.67;62.81
61870;BME280;47810;42.264;23.826;2023-05-14T00:38:16;94296.63;;;11.60;62.73
61870;BME280;47810;42.264;23.826;2023-05-14T00:40:43;94305.13;;;11.51;63.91
61870;BME280;47810;42.264;23.826;2023-05-14T00:43:14;94285.84;;;11.49;64.36
61870;BME280;47810;42.264;23.826;2023-05-14T00:45:40;94276.97;;;11.50;64.07
61870;BME280;47810;42.264;23.826;2023-05-14T00:48:05;94272.41;;;11.52;63.78
61870;BME280;47810;42.264;23.826;2023-05-14T00:50:31;94271.97;;;11.45;64.83
61870;BME280;47810;42.264;23.826;2023-05-14T00:52:57;94271.88;;;11.47;65.30
61870;BME280;47810;42.264;23.826;2023-05-14T00:55:23;94272.53;;;11.50;65.54
61870;BME280;47810;42.264;23.826;2023-05-14T00:57:49;94269.50;;;11.56;64.96
61870;BME280;47810;42.264;23.826;2023-05-14T01:00:15;94264.09;;;11.58;65.24
61870;BME280;47810;42.264;23.826;2023-05-14T01:02:40;94264.50;;;11.52;64.99
61870;BME280;47810;42.264;23.826;2023-05-14T01:05:06;94270.34;;;11.42;64.98
61870;BME280;47810;42.264;23.826;2023-05-14T01:07:36;94260.66;;;11.43;64.89
61870;BME280;47810;42.264;23.826;2023-05-14T01:10:11;94259.78;;;11.42;64.85
61870;BME280;47810;42.264;23.826;2023-05-14T01:12:39;94254.13;;;11.34;64.54
61870;BME280;47810;42.264;23.826;2023-05-14T01:15:11;94253.75;;;11.26;65.39
61870;BME280;47810;42.264;23.826;2023-05-14T01:17:45;94251.66;;;11.17;65.65
61870;BME280;47810;42.264;23.826;2023-05-14T01:20:13;94260.00;;;11.11;65.94
61870;BME280;47810;42.264;23.826;2023-05-14T01:22:38;94255.44;;;11.13;66.36
61870;BME280;47810;42.264;23.826;2023-05-14T01:25:04;94245.06;;;11.10;66.17
61870;BME280;47810;42.264;23.826;2023-05-14T01:30:22;94260.34;;;11.05;67.17
61870;BME280;47810;42.264;23.826;2023-05-14T01:32:50;94265.81;;;11.02;67.16
61870;BME280;47810;42.264;23.826;2023-05-14T01:35:17;94276.41;;;11.02;66.03
61870;BME280;47810;42.264;23.826;2023-05-14T01:37:44;94275.25;;;10.91;66.58
61870;BME280;47810;42.264;23.826;2023-05-14T01:40:10;94266.44;;;10.91;66.78
61870;BME280;47810;42.264;23.826;2023-05-14T01:42:37;94270.63;;;10.95;66.65
61870;BME280;47810;42.264;23.826;2023-05-14T01:45:02;94266.56;;;10.89;67.90
61870;BME280;47810;42.264;23.826;2023-05-14T01:47:28;94262.31;;;10.87;68.15
61870;BME280;47810;42.264;23.826;2023-05-14T01:49:54;94270.72;;;10.93;68.32
61870;BME280;47810;42.264;23.826;2023-05-14T01:52:19;94275.81;;;10.82;68.92
61870;BME280;47810;42.264;23.826;2023-05-14T01:54:48;94285.41;;;10.83;68.82
61870;BME280;47810;42.264;23.826;2023-05-14T01:57:14;94295.38;;;10.78;68.83
61870;BME280;47810;42.264;23.826;2023-05-14T01:59:39;94289.38;;;10.76;68.98
61870;BME280;47810;42.264;23.826;2023-05-14T02:02:05;94295.56;;;10.75;69.62
61870;BME280;47810;42.264;23.826;2023-05-14T02:04:30;94296.81;;;10.84;69.23
61870;BME280;47810;42.264;23.826;2023-05-14T02:06:56;94292.50;;;10.83;68.99
61870;BME280;47810;42.264;23.826;2023-05-14T02:09:21;94306.84;;;10.79;69.40
61870;BME280;47810;42.264;23.826;2023-05-14T02:11:47;94305.97;;;10.78;69.09
61870;BME280;47810;42.264;23.826;2023-05-14T02:14:13;94302.56;;;10.76;69.52
61870;BME280;47810;42.264;23.826;2023-05-14T02:16:39;94306.06;;;10.77;69.57
61870;BME280;47810;42.264;23.826;2023-05-14T02:19:05;94305.56;;;10.70;70.74
61870;BME280;47810;42.264;23.826;2023-05-14T02:21:30;94307.94;;;10.75;71.78
61870;BME280;47810;42.264;23.826;2023-05-14T02:23:56;94302.03;;;10.85;71.28
61870;BME280;47810;42.264;23.826;2023-05-14T02:26:21;94311.66;;;11.01;70.20
61870;BME280;47810;42.264;23.826;2023-05-14T02:28:47;94315.00;;;10.74;71.77
61870;BME280;47810;42.264;23.826;2023-05-14T02:31:14;94328.38;;;10.71;72.30
61870;BME280;47810;42.264;23.826;2023-05-14T02:33:43;94332.94;;;10.69;71.48
61870;BME280;47810;42.264;23.826;2023-05-14T02:36:08;94328.22;;;10.74;70.98
61870;BME280;47810;42.264;23.826;2023-05-14T02:38:34;94331.53;;;10.78;70.17
61870;BME280;47810;42.264;23.826;2023-05-14T02:41:01;94323.53;;;10.79;69.46
61870;BME280;47810;42.264;23.826;2023-05-14T02:43:26;94328.97;;;10.76;69.75
61870;BME280;47810;42.264;23.826;2023-05-14T02:45:52;94328.88;;;10.47;71.88
61870;BME280;47810;42.264;23.826;2023-05-14T02:48:17;94320.00;;;10.48;73.21
61870;BME280;47810;42.264;23.826;2023-05-14T02:50:43;94322.44;;;10.37;74.54
61870;BME280;47810;42.264;23.826;2023-05-14T02:53:09;94325.63;;;10.42;74.26
61870;BME280;47810;42.264;23.826;2023-05-14T02:55:35;94333.66;;;10.41;75.04
61870;BME280;47810;42.264;23.826;2023-05-14T02:58:00;94337.03;;;10.59;76.45
61870;BME280;47810;42.264;23.826;2023-05-14T03:00:26;94338.00;;;10.42;76.29
61870;BME280;47810;42.264;23.826;2023-05-14T03:02:52;94343.91;;;10.61;77.28
61870;BME280;47810;42.264;23.826;2023-05-14T03:05:17;94339.69;;;10.27;78.37
61870;BME280;47810;42.264;23.826;2023-05-14T03:07:43;94335.50;;;10.23;79.84
61870;BME280;47810;42.264;23.826;2023-05-14T03:10:08;94332.66;;;10.28;80.55
61870;BME280;47810;42.264;23.826;2023-05-14T03:12:34;94331.59;;;10.14;80.96
61870;BME280;47810;42.264;23.826;2023-05-14T03:15:00;94340.63;;;10.10;81.41
61870;BME280;47810;42.264;23.826;2023-05-14T03:17:25;94343.53;;;10.06;81.83
61870;BME280;47810;42.264;23.826;2023-05-14T03:19:51;94335.84;;;9.85;82.54
61870;BME280;47810;42.264;23.826;2023-05-14T03:22:16;94331.78;;;9.79;83.03
61870;BME280;47810;42.264;23.826;2023-05-14T03:24:42;94346.16;;;10.06;82.88
61870;BME280;47810;42.264;23.826;2023-05-14T03:27:07;94335.94;;;9.99;82.61
61870;BME280;47810;42.264;23.826;2023-05-14T03:29:33;94333.66;;;10.09;82.21
61870;BME280;47810;42.264;23.826;2023-05-14T03:31:58;94332.81;;;10.09;82.04
61870;BME280;47810;42.264;23.826;2023-05-14T03:34:24;94325.13;;;10.20;82.34
61870;BME280;47810;42.264;23.826;2023-05-14T03:36:50;94320.53;;;10.08;82.67
61870;BME280;47810;42.264;23.826;2023-05-14T03:39:15;94326.31;;;9.67;82.71
61870;BME280;47810;42.264;23.826;2023-05-14T03:41:44;94324.59;;;9.66;83.15
61870;BME280;47810;42.264;23.826;2023-05-14T03:44:10;94327.69;;;9.74;82.89
61870;BME280;47810;42.264;23.826;2023-05-14T03:46:36;94322.38;;;9.42;85.02
61870;BME280;47810;42.264;23.826;2023-05-14T03:49:02;94320.50;;;9.44;85.66
61870;BME280;47810;42.264;23.826;2023-05-14T03:51:27;94314.78;;;9.36;86.88
61870;BME280;47810;42.264;23.826;2023-05-14T03:53:53;94309.94;;;9.28;86.78
61870;BME280;47810;42.264;23.826;2023-05-14T03:56:18;94300.63;;;9.54;86.32
61870;BME280;47810;42.264;23.826;2023-05-14T03:58:44;94300.47;;;9.57;86.37
61870;BME280;47810;42.264;23.826;2023-05-14T04:01:09;94308.63;;;9.69;85.18
61870;BME280;47810;42.264;23.826;2023-05-14T04:03:35;94308.25;;;9.43;86.01
61870;BME280;47810;42.264;23.826;2023-05-14T04:06:00;94314.06;;;9.66;85.33
61870;BME280;47810;42.264;23.826;2023-05-14T04:08:26;94305.41;;;9.79;83.21
61870;BME280;47810;42.264;23.826;2023-05-14T04:10:51;94302.50;;;10.00;80.92
61870;BME280;47810;42.264;23.826;2023-05-14T04:13:17;94308.63;;;10.16;80.72
61870;BME280;47810;42.264;23.826;2023-05-14T04:15:42;94317.56;;;9.82;83.39
61870;BME280;47810;42.264;23.826;2023-05-14T04:18:08;94321.91;;;9.83;83.93
61870;BME280;47810;42.264;23.826;2023-05-14T04:20:34;94322.91;;;9.65;84.85
61870;BME280;47810;42.264;23.826;2023-05-14T04:22:59;94331.44;;;9.70;85.36
61870;BME280;47810;42.264;23.826;2023-05-14T04:25:25;94326.84;;;9.89;84.83
61870;BME280;47810;42.264;23.826;2023-05-14T04:27:50;94327.53;;;10.09;83.70
61870;BME280;47810;42.264;23.826;2023-05-14T04:30:16;94330.75;;;10.14;82.34
61870;BME280;47810;42.264;23.826;2023-05-14T04:32:41;94320.78;;;10.19;81.64
61870;BME280;47810;42.264;23.826;2023-05-14T04:35:07;94320.63;;;10.22;80.35
61870;BME280;47810;42.264;23.826;2023-05-14T04:37:36;94327.22;;;10.31;79.93
61870;BME280;47810;42.264;23.826;2023-05-14T04:40:02;94340.66;;;10.26;80.39
61870;BME280;47810;42.264;23.826;2023-05-14T04:42:28;94349.47;;;10.25;80.36
61870;BME280;47810;42.264;23.826;2023-05-14T04:44:54;94331.53;;;10.32;80.26
61870;BME280;47810;42.264;23.826;2023-05-14T04:47:19;94328.06;;;10.31;80.15
61870;BME280;47810;42.264;23.826;2023-05-14T04:49:45;94339.00;;;10.39;79.66
61870;BME280;47810;42.264;23.826;2023-05-14T04:52:10;94345.41;;;10.35;78.23
61870;BME280;47810;42.264;23.826;2023-05-14T04:54:36;94343.72;;;10.34;78.53
61870;BME280;47810;42.264;23.826;2023-05-14T04:57:02;94354.81;;;10.08;80.49
61870;BME280;47810;42.264;23.826;2023-05-14T04:59:28;94361.38;;;10.00;81.59
61870;BME280;47810;42.264;23.826;2023-05-14T05:01:53;94360.03;;;10.09;80.90
61870;BME280;47810;42.264;23.826;2023-05-14T05:04:19;94359.88;;;9.96;81.99
61870;BME280;47810;42.264;23.826;2023-05-14T05:06:45;94365.13;;;9.96;81.63
61870;BME280;47810;42.264;23.826;2023-05-14T05:09:10;94366.09;;;9.95;81.85
61870;BME280;47810;42.264;23.826;2023-05-14T05:11:36;94370.25;;;9.99;82.13
61870;BME280;47810;42.264;23.826;2023-05-14T05:14:03;94369.25;;;10.18;81.40
61870;BME280;47810;42.264;23.826;2023-05-14T05:16:28;94376.19;;;10.03;82.43
61870;BME280;47810;42.264;23.826;2023-05-14T05:18:54;94372.97;;;10.14;81.65
61870;BME280;47810;42.264;23.826;2023-05-14T05:21:20;94372.88;;;9.99;81.70
61870;BME280;47810;42.264;23.826;2023-05-14T05:23:45;94379.59;;;9.89;82.51
61870;BME280;47810;42.264;23.826;2023-05-14T05:26:11;94388.75;;;9.82;82.88
61870;BME280;47810;42.264;23.826;2023-05-14T05:28:36;94378.03;;;9.85;82.83
61870;BME280;47810;42.264;23.826;2023-05-14T05:31:02;94375.69;;;9.96;82.77
61870;BME280;47810;42.264;23.826;2023-05-14T05:33:27;94387.38;;;10.08;82.11
61870;BME280;47810;42.264;23.826;2023-05-14T05:35:53;94408.94;;;9.83;81.76
61870;BME280;47810;42.264;23.826;2023-05-14T05:38:19;94415.75;;;9.87;82.22
61870;BME280;47810;42.264;23.826;2023-05-14T05:40:44;94424.31;;;9.75;82.47
61870;BME280;47810;42.264;23.826;2023-05-14T05:43:10;94432.34;;;9.89;82.57
61870;BME280;47810;42.264;23.826;2023-05-14T05:45:38;94443.38;;;9.80;82.77
61870;BME280;47810;42.264;23.826;2023-05-14T05:48:03;94448.78;;;9.61;84.20
61870;BME280;47810;42.264;23.826;2023-05-14T05:50:29;94453.63;;;9.69;83.98
61870;BME280;47810;42.264;23.826;2023-05-14T05:52:55;94446.78;;;9.82;83.91
61870;BME280;47810;42.264;23.826;2023-05-14T05:55:23;94442.50;;;10.13;81.55
61870;BME280;47810;42.264;23.826;2023-05-14T05:57:49;94436.38;;;10.12;81.32
61870;BME280;47810;42.264;23.826;2023-05-14T06:00:14;94443.69;;;10.07;81.69
61870;BME280;47810;42.264;23.826;2023-05-14T06:02:41;94440.47;;;10.02;82.85
61870;BME280;47810;42.264;23.826;2023-05-14T06:05:07;94436.03;;;10.02;81.97
61870;BME280;47810;42.264;23.826;2023-05-14T06:07:33;94440.28;;;10.05;82.76
61870;BME280;47810;42.264;23.826;2023-05-14T06:09:59;94449.72;;;9.93;83.22
61870;BME280;47810;42.264;23.826;2023-05-14T06:12:24;94445.06;;;9.98;83.13
61870;BME280;47810;42.264;23.826;2023-05-14T06:14:50;94437.63;;;9.89;83.01
61870;BME280;47810;42.264;23.826;2023-05-14T06:17:15;94436.34;;;9.96;83.22
61870;BME280;47810;42.264;23.826;2023-05-14T06:19:41;94436.34;;;9.96;83.68
61870;BME280;47810;42.264;23.826;2023-05-14T06:22:07;94444.00;;;10.01;84.11
61870;BME280;47810;42.264;23.826;2023-05-14T06:24:32;94445.97;;;9.97;84.11
61870;BME280;47810;42.264;23.826;2023-05-14T06:26:58;94455.88;;;10.10;83.94
61870;BME280;47810;42.264;23.826;2023-05-14T06:29:24;94450.00;;;9.71;86.02
61870;BME280;47810;42.264;23.826;2023-05-14T06:31:49;94454.19;;;9.58;87.30
61870;BME280;47810;42.264;23.826;2023-05-14T06:34:14;94448.09;;;9.57;87.20
61870;BME280;47810;42.264;23.826;2023-05-14T06:36:40;94445.50;;;9.56;87.44
61870;BME280;47810;42.264;23.826;2023-05-14T06:39:06;94444.19;;;9.65;87.13
61870;BME280;47810;42.264;23.826;2023-05-14T06:41:31;94446.41;;;9.72;86.87
61870;BME280;47810;42.264;23.826;2023-05-14T06:43:57;94446.94;;;9.79;86.89
61870;BME280;47810;42.264;23.826;2023-05-14T06:46:22;94441.78;;;9.93;86.17
61870;BME280;47810;42.264;23.826;2023-05-14T06:48:48;94428.03;;;10.04;84.78
61870;BME280;47810;42.264;23.826;2023-05-14T06:51:14;94418.31;;;10.04;84.47
61870;BME280;47810;42.264;23.826;2023-05-14T06:53:41;94418.47;;;10.01;84.36
61870;BME280;47810;42.264;23.826;2023-05-14T06:56:06;94411.09;;;9.92;84.28
61870;BME280;47810;42.264;23.826;2023-05-14T06:58:32;94417.56;;;10.02;84.28
61870;BME280;47810;42.264;23.826;2023-05-14T07:00:59;94419.25;;;10.03;83.80
61870;BME280;47810;42.264;23.826;2023-05-14T07:03:24;94427.41;;;10.32;83.25
61870;BME280;47810;42.264;23.826;2023-05-14T07:05:50;94432.69;;;10.32;82.73
61870;BME280;47810;42.264;23.826;2023-05-14T07:08:16;94449.22;;;10.02;83.63
61870;BME280;47810;42.264;23.826;2023-05-14T07:10:41;94464.91;;;9.88;84.72
61870;BME280;47810;42.264;23.826;2023-05-14T07:13:07;94445.81;;;10.00;84.38
61870;BME280;47810;42.264;23.826;2023-05-14T07:15:32;94434.06;;;10.06;84.17
61870;BME280;47810;42.264;23.826;2023-05-14T07:17:58;94417.13;;;10.10;83.92
61870;BME280;47810;42.264;23.826;2023-05-14T07:20:24;94412.88;;;10.08;83.94
61870;BME280;47810;42.264;23.826;2023-05-14T07:22:50;94408.22;;;10.13;84.28
61870;BME280;47810;42.264;23.826;2023-05-14T07:25:15;94402.44;;;10.22;83.93
61870;BME280;47810;42.264;23.826;2023-05-14T07:27:41;94409.25;;;10.26;83.16
61870;BME280;47810;42.264;23.826;2023-05-14T07:30:06;94411.56;;;10.32;82.61
61870;BME280;47810;42.264;23.826;2023-05-14T07:32:32;94411.63;;;10.15;83.07
61870;BME280;47810;42.264;23.826;2023-05-14T07:34:58;94412.97;;;10.22;82.63
61870;BME280;47810;42.264;23.826;2023-05-14T07:37:23;94418.44;;;10.19;82.37
61870;BME280;47810;42.264;23.826;2023-05-14T07:39:50;94422.19;;;10.15;82.38
61870;BME280;47810;42.264;23.826;2023-05-14T07:42:16;94432.56;;;10.18;82.17
61870;BME280;47810;42.264;23.826;2023-05-14T07:44:42;94445.31;;;10.10;83.76
61870;BME280;47810;42.264;23.826;2023-05-14T07:47:07;94453.97;;;9.96;84.69
61870;BME280;47810;42.264;23.826;2023-05-14T07:49:33;94458.72;;;9.89;85.56
61870;BME280;47810;42.264;23.826;2023-05-14T07:51:58;94459.25;;;9.96;85.08
61870;BME280;47810;42.264;23.826;2023-05-14T07:54:24;94445.22;;;9.95;85.42
61870;BME280;47810;42.264;23.826;2023-05-14T07:56:50;94451.69;;;10.06;85.50
61870;BME280;47810;42.264;23.826;2023-05-14T07:59:16;94463.53;;;9.98;85.19
61870;BME280;47810;42.264;23.826;2023-05-14T08:01:42;94477.63;;;9.97;85.39
61870;BME280;47810;42.264;23.826;2023-05-14T08:04:07;94480.00;;;9.86;85.14
61870;BME280;47810;42.264;23.826;2023-05-14T08:06:36;94481.03;;;9.99;84.37
61870;BME280;47810;42.264;23.826;2023-05-14T08:09:01;94483.06;;;9.94;84.32
61870;BME280;47810;42.264;23.826;2023-05-14T08:11:32;94496.19;;;9.96;84.29
61870;BME280;47810;42.264;23.826;2023-05-14T08:13:58;94496.78;;;10.01;84.86
61870;BME280;47810;42.264;23.826;2023-05-14T08:16:23;94497.19;;;9.93;84.41
61870;BME280;47810;42.264;23.826;2023-05-14T08:18:50;94497.34;;;9.90;84.68
61870;BME280;47810;42.264;23.826;2023-05-14T08:21:15;94484.31;;;9.87;85.08
61870;BME280;47810;42.264;23.826;2023-05-14T08:23:41;94472.81;;;10.06;84.77
61870;BME280;47810;42.264;23.826;2023-05-14T08:26:07;94452.59;;;10.04;84.16
61870;BME280;47810;42.264;23.826;2023-05-14T08:28:32;94457.53;;;9.95;84.31
61870;BME280;47810;42.264;23.826;2023-05-14T08:31:01;94462.28;;;9.88;83.88
61870;BME280;47810;42.264;23.826;2023-05-14T08:33:26;94465.28;;;9.98;83.21
61870;BME280;47810;42.264;23.826;2023-05-14T08:35:52;94466.41;;;10.10;83.13
61870;BME280;47810;42.264;23.826;2023-05-14T08:38:18;94452.06;;;10.15;83.13
61870;BME280;47810;42.264;23.826;2023-05-14T08:40:47;94446.47;;;10.04;83.14
61870;BME280;47810;42.264;23.826;2023-05-14T08:43:15;94441.91;;;10.08;82.97
61870;BME280;47810;42.264;23.826;2023-05-14T08:45:44;94452.44;;;10.08;83.23
61870;BME280;47810;42.264;23.826;2023-05-14T08:48:10;94449.06;;;10.06;83.11
61870;BME280;47810;42.264;23.826;2023-05-14T08:50:39;94450.44;;;10.13;83.03
61870;BME280;47810;42.264;23.826;2023-05-14T08:53:05;94435.28;;;10.16;83.74
61870;BME280;47810;42.264;23.826;2023-05-14T08:55:31;94437.78;;;9.86;83.77
61870;BME280;47810;42.264;23.826;2023-05-14T08:57:58;94426.81;;;9.94;83.98
61870;BME280;47810;42.264;23.826;2023-05-14T09:00:24;94431.88;;;9.98;83.91
61870;BME280;47810;42.264;23.826;2023-05-14T09:02:51;94416.44;;;10.07;83.97
61870;BME280;47810;42.264;23.826;2023-05-14T09:05:16;94406.69;;;10.09;84.26
61870;BME280;47810;42.264;23.826;2023-05-14T09:07:43;94427.50;;;9.97;84.38
61870;BME280;47810;42.264;23.826;2023-05-14T09:10:09;94424.53;;;10.03;83.99
61870;BME280;47810;42.264;23.826;2023-05-14T09:12:39;94413.19;;;10.01;84.99
61870;BME280;47810;42.264;23.826;2023-05-14T09:15:05;94397.63;;;9.97;85.98
61870;BME280;47810;42.264;23.826;2023-05-14T09:17:32;94394.06;;;9.98;84.88
61870;BME280;47810;42.264;23.826;2023-05-14T09:20:00;94390.34;;;10.02;85.00
61870;BME280;47810;42.264;23.826;2023-05-14T09:22:28;94402.31;;;10.08;84.75
61870;BME280;47810;42.264;23.826;2023-05-14T09:25:05;94401.75;;;10.02;84.44
61870;BME280;47810;42.264;23.826;2023-05-14T09:27:31;94402.66;;;10.01;85.38
61870;BME280;47810;42.264;23.826;2023-05-14T09:30:07;94405.28;;;10.01;84.90
61870;BME280;47810;42.264;23.826;2023-05-14T09:32:37;94405.91;;;10.07;85.52
61870;BME280;47810;42.264;23.826;2023-05-14T09:37:49;94412.78;;;9.93;84.74
61870;BME280;47810;42.264;23.826;2023-05-14T09:40:15;94409.38;;;9.91;84.43
61870;BME280;47810;42.264;23.826;2023-05-14T09:42:41;94419.38;;;9.85;84.68
61870;BME280;47810;42.264;23.826;2023-05-14T09:45:07;94438.53;;;9.88;85.41
61870;BME280;47810;42.264;23.826;2023-05-14T09:47:34;94446.78;;;9.82;85.36
61870;BME280;47810;42.264;23.826;2023-05-14T09:50:00;94432.50;;;9.86;84.69
61870;BME280;47810;42.264;23.826;2023-05-14T09:52:26;94440.44;;;9.86;84.14
61870;BME280;47810;42.264;23.826;2023-05-14T09:54:51;94433.59;;;9.82;84.00
61870;BME280;47810;42.264;23.826;2023-05-14T09:57:18;94430.78;;;9.85;84.44
61870;BME280;47810;42.264;23.826;2023-05-14T09:59:43;94413.91;;;9.72;85.02
61870;BME280;47810;42.264;23.826;2023-05-14T10:02:15;94397.78;;;9.78;86.80
61870;BME280;47810;42.264;23.826;2023-05-14T10:04:40;94394.56;;;9.73;86.11
61870;BME280;47810;42.264;23.826;2023-05-14T10:07:07;94402.31;;;9.59;86.39
61870;BME280;47810;42.264;23.826;2023-05-14T10:09:33;94398.75;;;9.60;86.66
61870;BME280;47810;42.264;23.826;2023-05-14T10:11:59;94392.25;;;9.67;86.05
61870;BME280;47810;42.264;23.826;2023-05-14T10:14:28;94383.84;;;9.76;85.55
61870;BME280;47810;42.264;23.826;2023-05-14T10:16:57;94372.44;;;9.91;86.45
61870;BME280;47810;42.264;23.826;2023-05-14T10:19:23;94370.41;;;9.96;87.29
61870;BME280;47810;42.264;23.826;2023-05-14T10:21:56;94366.94;;;9.96;86.03
61870;BME280;47810;42.264;23.826;2023-05-14T10:24:26;94374.00;;;9.95;85.82
61870;BME280;47810;42.264;23.826;2023-05-14T10:26:52;94358.75;;;10.00;86.13
61870;BME280;47810;42.264;23.826;2023-05-14T10:29:17;94356.44;;;10.10;86.59
61870;BME280;47810;42.264;23.826;2023-05-14T10:34:31;94369.91;;;10.06;85.60
61870;BME280;47810;42.264;23.826;2023-05-14T10:37:00;94380.47;;;10.06;85.29
61870;BME280;47810;42.264;23.826;2023-05-14T10:42:30;94356.78;;;9.88;85.35
61870;BME280;47810;42.264;23.826;2023-05-14T10:44:58;94359.75;;;9.82;86.42
61870;BME280;47810;42.264;23.826;2023-05-14T10:47:28;94351.25;;;9.77;86.39
61870;BME280;47810;42.264;23.826;2023-05-14T10:49:54;94329.72;;;9.69;87.37
61870;BME280;47810;42.264;23.826;2023-05-14T10:52:21;94339.22;;;9.55;87.26
61870;BME280;47810;42.264;23.826;2023-05-14T10:54:48;94353.19;;;9.57;88.52
61870;BME280;47810;42.264;23.826;2023-05-14T10:57:14;94349.84;;;9.54;88.63
61870;BME280;47810;42.264;23.826;2023-05-14T10:59:42;94352.72;;;9.49;87.80
61870;BME280;47810;42.264;23.826;2023-05-14T11:05:05;94360.16;;;9.59;87.63
61870;BME280;47810;42.264;23.826;2023-05-14T11:07:33;94359.38;;;9.56;88.28
61870;BME280;47810;42.264;23.826;2023-05-14T11:10:06;94362.13;;;9.71;88.63
61870;BME280;47810;42.264;23.826;2023-05-14T11:12:33;94359.97;;;9.62;88.10
61870;BME280;47810;42.264;23.826;2023-05-14T11:14:59;94363.88;;;9.54;88.36
61870;BME280;47810;42.264;23.826;2023-05-14T11:17:25;94358.78;;;9.51;88.08
61870;BME280;47810;42.264;23.826;2023-05-14T11:19:51;94348.41;;;9.48;88.01
61870;BME280;47810;42.264;23.826;2023-05-14T11:22:17;94358.00;;;9.49;87.58
61870;BME280;47810;42.264;23.826;2023-05-14T11:24:42;94357.13;;;9.66;88.31
61870;BME280;47810;42.264;23.826;2023-05-14T11:27:08;94356.13;;;9.51;88.06
61870;BME280;47810;42.264;23.826;2023-05-14T11:29:36;94370.31;;;9.49;89.08
61870;BME280;47810;42.264;23.826;2023-05-14T11:32:03;94357.25;;;9.47;88.89
61870;BME280;47810;42.264;23.826;2023-05-14T11:34:29;94342.81;;;9.70;89.13
61870;BME280;47810;42.264;23.826;2023-05-14T11:36:55;94356.50;;;9.61;88.75
61870;BME280;47810;42.264;23.826;2023-05-14T11:39:20;94367.47;;;9.53;88.74
61870;BME280;47810;42.264;23.826;2023-05-14T11:41:46;94366.84;;;9.48;88.58
61870;BME280;47810;42.264;23.826;2023-05-14T11:44:13;94364.84;;;9.53;88.92
61870;BME280;47810;42.264;23.826;2023-05-14T11:46:39;94350.88;;;9.51;89.20
61870;BME280;47810;42.264;23.826;2023-05-14T11:49:04;94352.03;;;9.46;89.61
61870;BME280;47810;42.264;23.826;2023-05-14T11:51:32;94358.25;;;9.45;88.91
61870;BME280;47810;42.264;23.826;2023-05-14T11:53:57;94356.34;;;9.31;89.09
61870;BME280;47810;42.264;23.826;2023-05-14T11:56:28;94354.16;;;9.39;89.31
61870;BME280;47810;42.264;23.826;2023-05-14T11:58:55;94342.06;;;9.35;90.13
61870;BME280;47810;42.264;23.826;2023-05-14T12:01:21;94344.63;;;9.37;90.63
61870;BME280;47810;42.264;23.826;2023-05-14T12:03:46;94347.19;;;9.38;90.91
61870;BME280;47810;42.264;23.826;2023-05-14T12:06:12;94353.09;;;9.26;90.44
61870;BME280;47810;42.264;23.826;2023-05-14T12:08:37;94337.59;;;9.20;90.17
61870;BME280;47810;42.264;23.826;2023-05-14T12:11:03;94331.50;;;9.19;91.08
61870;BME280;47810;42.264;23.826;2023-05-14T12:13:29;94321.78;;;9.20;90.59
61870;BME280;47810;42.264;23.826;2023-05-14T12:15:59;94323.00;;;9.30;90.92
61870;BME280;47810;42.264;23.826;2023-05-14T12:18:28;94327.91;;;9.20;90.52
61870;BME280;47810;42.264;23.826;2023-05-14T12:20:54;94313.56;;;9.26;91.29
61870;BME280;47810;42.264;23.826;2023-05-14T12:23:29;94302.09;;;9.27;90.99
61870;BME280;47810;42.264;23.826;2023-05-14T12:25:59;94319.63;;;9.28;91.15
61870;BME280;47810;42.264;23.826;2023-05-14T12:28:26;94305.16;;;9.19;90.75
61870;BME280;47810;42.264;23.826;2023-05-14T12:30:55;94305.84;;;9.23;90.72
61870;BME280;47810;42.264;23.826;2023-05-14T12:33:21;94296.47;;;9.17;90.55
61870;BME280;47810;42.264;23.826;2023-05-14T12:35:48;94297.66;;;9.27;90.57
61870;BME280;47810;42.264;23.826;2023-05-14T12:38:13;94295.13;;;9.26;91.46
61870;BME280;47810;42.264;23.826;2023-05-14T12:40:39;94289.94;;;9.24;91.33
61870;BME280;47810;42.264;23.826;2023-05-14T12:43:04;94286.94;;;9.15;91.66
61870;BME280;47810;42.264;23.826;2023-05-14T12:45:30;94276.22;;;9.18;91.77
61870;BME280;47810;42.264;23.826;2023-05-14T12:47:56;94292.97;;;9.17;92.71
61870;BME280;47810;42.264;23.826;2023-05-14T12:50:21;94285.53;;;9.25;92.00
61870;BME280;47810;42.264;23.826;2023-05-14T12:52:47;94274.69;;;9.14;91.94
61870;BME280;47810;42.264;23.826;2023-05-14T12:55:12;94268.16;;;9.21;92.04
61870;BME280;47810;42.264;23.826;2023-05-14T12:57:38;94274.69;;;9.14;92.57
61870;BME280;47810;42.264;23.826;2023-05-14T13:00:04;94273.75;;;9.15;92.85
61870;BME280;47810;42.264;23.826;2023-05-14T13:02:36;94266.22;;;9.08;92.22
61870;BME280;47810;42.264;23.826;2023-05-14T13:05:01;94261.38;;;9.17;93.07